createdAt,value
2023-02-16T00:00:24.466Z,62.45
2023-02-16T00:02:52.052Z,40.50
2023-02-16T00:05:35.132Z,65.65
2023-02-16T00:08:03.312Z,55.58
2023-02-16T00:10:34.474Z,47.40
2023-02-16T00:13:21.067Z,43.33
2023-02-16T00:15:48.163Z,51.33
2023-02-16T00:18:19.051Z,39.90
2023-02-16T00:20:47.341Z,75.75
2023-02-16T00:23:14.586Z,75.28
2023-02-16T00:25:41.735Z,46.35
2023-02-16T00:28:16.016Z,52.95
2023-02-16T00:30:43.102Z,53.03
2023-02-16T00:33:21.736Z,65.97
2023-02-16T00:35:49.816Z,38.50
2023-02-16T00:38:16.966Z,41.83
2023-02-16T00:40:44.323Z,37.75
2023-02-16T00:43:29.182Z,35.45
2023-02-16T00:45:57.496Z,42.42
2023-02-16T00:48:25.019Z,51.17
2023-02-16T00:50:52.058Z,46.67
2023-02-16T00:53:19.229Z,40.28
2023-02-16T00:55:46.518Z,33.40
2023-02-16T00:58:26.523Z,72.65
2023-02-16T01:01:03.004Z,63.42
2023-02-16T01:03:30.227Z,50.35
2023-02-16T01:06:16.221Z,111.43
2023-02-16T01:09:02.035Z,34.40
2023-02-16T01:11:29.729Z,30.30
2023-02-16T01:13:57.534Z,30.58
2023-02-16T01:16:37.935Z,33.53
2023-02-16T01:19:05.684Z,29.73
2023-02-16T01:21:33.094Z,34.42
2023-02-16T01:24:00.785Z,44.60
2023-02-16T01:26:27.919Z,50.10
2023-02-16T01:28:54.735Z,44.47
2023-02-16T01:31:21.831Z,47.28
2023-02-16T01:33:48.981Z,41.33
2023-02-16T01:36:22.132Z,33.03
2023-02-16T01:38:49.021Z,40.38
2023-02-16T01:41:31.626Z,41.67
2023-02-16T01:44:23.863Z,33.00
2023-02-16T01:46:59.868Z,40.90
2023-02-16T01:49:28.020Z,40.53
2023-02-16T01:52:27.309Z,37.60
2023-02-16T01:55:00.749Z,36.20
2023-02-16T01:57:38.208Z,35.72
2023-02-16T02:00:13.012Z,34.65
2023-02-16T02:02:44.256Z,33.20
2023-02-16T02:05:53.571Z,29.15
2023-02-16T02:08:51.466Z,29.17
2023-02-16T02:11:52.383Z,30.67
2023-02-16T02:14:33.132Z,31.52
2023-02-16T02:17:05.610Z,32.50
2023-02-16T02:19:46.042Z,35.00
2023-02-16T02:22:31.770Z,37.85
2023-02-16T02:25:11.022Z,34.47
2023-02-16T02:28:15.195Z,38.38
2023-02-16T02:30:53.865Z,66.72
2023-02-16T02:33:26.646Z,55.35
2023-02-16T02:36:07.014Z,40.83
2023-02-16T02:39:00.310Z,38.70
2023-02-16T02:41:49.893Z,42.65
2023-02-16T02:44:21.558Z,32.20
2023-02-16T02:46:49.168Z,40.88
2023-02-16T02:49:16.345Z,41.60
2023-02-16T02:51:43.257Z,43.08
2023-02-16T02:54:39.094Z,40.22
2023-02-16T02:57:34.684Z,40.70
2023-02-16T03:00:40.163Z,65.38
2023-02-16T03:03:14.001Z,55.03
2023-02-16T03:05:46.414Z,53.60
2023-02-16T03:08:17.651Z,54.75
2023-02-16T03:11:22.526Z,108.65
2023-02-16T03:13:55.675Z,59.72
2023-02-16T03:16:43.465Z,54.17
2023-02-16T03:19:32.524Z,75.30
2023-02-16T03:22:18.700Z,78.75
2023-02-16T03:25:04.870Z,52.63
2023-02-16T03:27:55.520Z,43.70
2023-02-16T03:30:24.430Z,50.25
2023-02-16T03:32:52.449Z,72.78
2023-02-16T03:35:19.698Z,80.45
2023-02-16T03:37:48.221Z,86.93
2023-02-16T03:40:30.272Z,43.08
2023-02-16T03:43:01.229Z,70.72
2023-02-16T03:45:29.154Z,101.30
2023-02-16T03:47:59.144Z,76.75
2023-02-16T03:50:27.191Z,55.05
2023-02-16T03:53:18.250Z,49.35
2023-02-16T03:55:47.414Z,75.63
2023-02-16T03:58:17.720Z,57.22
2023-02-16T04:00:44.874Z,76.95
2023-02-16T04:03:12.324Z,64.03
2023-02-16T04:05:39.969Z,44.67
2023-02-16T04:08:08.142Z,241.98
2023-02-16T04:10:35.422Z,191.55
2023-02-16T04:13:02.307Z,85.25
2023-02-16T04:15:30.606Z,104.78
2023-02-16T04:17:57.788Z,58.67
2023-02-16T04:20:27.983Z,76.95
2023-02-16T04:22:55.210Z,44.60
2023-02-16T04:25:22.338Z,82.50
2023-02-16T04:27:50.637Z,59.35
2023-02-16T04:30:20.258Z,85.32
2023-02-16T04:32:47.301Z,44.42
2023-02-16T04:35:14.662Z,83.95
2023-02-16T04:37:41.861Z,112.88
2023-02-16T04:40:11.092Z,48.25
2023-02-16T04:42:38.077Z,76.80
2023-02-16T04:45:05.118Z,32.15
2023-02-16T04:47:32.025Z,42.45
2023-02-16T04:49:59.316Z,43.08
2023-02-16T04:52:26.076Z,64.00
2023-02-16T04:54:52.968Z,32.78
2023-02-16T04:57:21.430Z,62.20
2023-02-16T04:59:48.229Z,42.25
2023-02-16T05:02:15.165Z,41.78
2023-02-16T05:04:42.407Z,37.40
2023-02-16T05:07:10.302Z,36.95
2023-02-16T05:09:37.122Z,35.38
2023-02-16T05:12:22.758Z,43.00
2023-02-16T05:14:50.016Z,81.60
2023-02-16T05:17:18.347Z,34.10
2023-02-16T05:19:51.022Z,58.50
2023-02-16T05:22:19.441Z,70.82
2023-02-16T05:24:46.612Z,72.40
2023-02-16T05:27:22.328Z,60.75
2023-02-16T05:29:49.675Z,45.28
2023-02-16T05:32:17.198Z,44.65
2023-02-16T05:34:45.621Z,80.80
2023-02-16T05:37:14.512Z,47.30
2023-02-16T05:39:41.588Z,90.38
2023-02-16T05:42:08.953Z,83.22
2023-02-16T05:44:36.750Z,110.38
2023-02-16T05:47:04.152Z,67.40
2023-02-16T05:49:31.200Z,69.65
2023-02-16T05:51:58.234Z,44.13
2023-02-16T05:54:25.207Z,47.42
2023-02-16T05:56:52.675Z,33.60
2023-02-16T05:59:19.959Z,98.63
2023-02-16T06:01:51.253Z,43.83
2023-02-16T06:04:20.585Z,61.20
2023-02-16T06:06:47.889Z,57.78
2023-02-16T06:09:15.084Z,38.40
2023-02-16T06:11:42.667Z,56.35
2023-02-16T06:14:13.215Z,78.13
2023-02-16T06:16:42.224Z,82.95
2023-02-16T06:19:09.974Z,51.28
2023-02-16T06:21:37.832Z,60.95
2023-02-16T06:24:05.863Z,88.13
2023-02-16T06:26:32.841Z,69.38
2023-02-16T06:28:59.843Z,58.88
2023-02-16T06:31:27.453Z,109.00
2023-02-16T06:33:56.951Z,65.03
2023-02-16T06:36:24.716Z,34.03
2023-02-16T06:38:51.826Z,43.72
2023-02-16T06:41:31.519Z,51.17
2023-02-16T06:44:00.650Z,48.13
2023-02-16T06:46:28.362Z,25.45
2023-02-16T06:48:55.429Z,44.33
2023-02-16T06:51:22.278Z,26.63
2023-02-16T06:53:49.469Z,74.30
2023-02-16T06:56:16.433Z,60.63
2023-02-16T06:58:43.597Z,75.22
2023-02-16T07:01:10.488Z,79.53
2023-02-16T07:03:37.446Z,41.85
2023-02-16T07:06:04.638Z,75.30
2023-02-16T07:08:31.853Z,66.85
2023-02-16T07:10:58.685Z,33.85
2023-02-16T07:13:25.552Z,70.03
2023-02-16T07:15:52.479Z,35.42
2023-02-16T07:18:19.759Z,60.17
2023-02-16T07:20:47.709Z,30.23
2023-02-16T07:23:14.502Z,44.28
2023-02-16T07:25:41.288Z,50.08
2023-02-16T07:28:08.121Z,50.05
2023-02-16T07:30:36.384Z,38.85
2023-02-16T07:33:04.253Z,46.25
2023-02-16T07:35:31.115Z,32.30
2023-02-16T07:37:58.075Z,31.20
2023-02-16T07:40:25.198Z,39.10
2023-02-16T07:42:51.984Z,32.42
2023-02-16T07:45:18.983Z,25.00
2023-02-16T07:47:45.871Z,34.45
2023-02-16T07:50:12.941Z,44.08
2023-02-16T07:52:39.882Z,30.17
2023-02-16T07:55:06.923Z,27.92
2023-02-16T07:57:33.736Z,51.13
2023-02-16T08:00:00.616Z,45.25
2023-02-16T08:02:27.706Z,40.88
2023-02-16T08:04:54.689Z,71.05
2023-02-16T08:07:21.799Z,32.35
2023-02-16T08:09:49.811Z,36.83
2023-02-16T08:12:17.063Z,34.50
2023-02-16T08:14:44.765Z,28.75
2023-02-16T08:17:11.660Z,28.77
2023-02-16T08:19:38.620Z,30.73
2023-02-16T08:22:06.608Z,29.23
2023-02-16T08:24:34.280Z,41.58
2023-02-16T08:27:03.942Z,21.38
2023-02-16T08:29:31.929Z,29.15
2023-02-16T08:31:59.513Z,20.38
2023-02-16T08:34:26.704Z,23.88
2023-02-16T08:36:56.810Z,46.92
2023-02-16T08:39:26.435Z,34.65
2023-02-16T08:41:54.163Z,31.00
2023-02-16T08:44:23.871Z,32.17
2023-02-16T08:46:55.522Z,29.35
2023-02-16T08:49:24.111Z,52.33
2023-02-16T08:51:54.606Z,28.08
2023-02-16T08:54:30.580Z,25.90
2023-02-16T08:56:59.724Z,29.67
2023-02-16T08:59:28.799Z,26.20
2023-02-16T09:01:58.220Z,32.42
2023-02-16T09:04:25.702Z,43.67
2023-02-16T09:06:53.512Z,32.67
2023-02-16T09:09:20.780Z,22.52
2023-02-16T09:11:48.757Z,29.33
2023-02-16T09:14:18.569Z,27.42
2023-02-16T09:16:46.052Z,21.52
2023-02-16T09:19:15.404Z,30.73
2023-02-16T09:21:42.861Z,24.08
2023-02-16T09:24:11.617Z,31.38
2023-02-16T09:26:42.474Z,28.33
2023-02-16T09:29:10.971Z,27.98
2023-02-16T09:31:39.695Z,23.23
2023-02-16T09:34:17.893Z,19.58
2023-02-16T09:36:45.798Z,20.13
2023-02-16T09:39:13.045Z,18.90
2023-02-16T09:42:29.736Z,22.30
2023-02-16T09:45:11.942Z,21.02
2023-02-16T09:47:43.158Z,18.45
2023-02-16T09:50:16.261Z,18.90
2023-02-16T09:52:53.416Z,21.80
2023-02-16T09:55:22.517Z,21.95
2023-02-16T09:58:01.452Z,22.00
2023-02-16T10:00:43.308Z,23.70
2023-02-16T10:03:47.481Z,23.73
2023-02-16T10:06:14.314Z,22.00
2023-02-16T10:08:51.489Z,21.30
2023-02-16T10:11:38.418Z,28.25
2023-02-16T10:14:31.025Z,19.40
2023-02-16T10:17:11.289Z,19.00
2023-02-16T10:19:54.663Z,21.35
2023-02-16T10:22:38.980Z,21.45
2023-02-16T10:25:10.229Z,20.33
2023-02-16T10:27:47.707Z,18.83
2023-02-16T10:30:18.477Z,18.98
2023-02-16T10:32:59.639Z,18.83
2023-02-16T10:35:48.272Z,18.55
2023-02-16T10:38:27.450Z,18.85
2023-02-16T10:41:34.841Z,21.88
2023-02-16T10:44:11.215Z,22.05
2023-02-16T10:46:45.444Z,22.27
2023-02-16T10:49:14.635Z,21.70
2023-02-16T10:51:50.245Z,21.17
2023-02-16T10:54:22.490Z,22.30
2023-02-16T10:56:54.346Z,19.13
2023-02-16T10:59:22.893Z,23.00
2023-02-16T11:01:57.634Z,19.38
2023-02-16T11:04:33.659Z,19.52
2023-02-16T11:07:14.326Z,23.00
2023-02-16T11:09:43.054Z,19.30
2023-02-16T11:12:35.374Z,19.17
2023-02-16T11:15:06.241Z,18.70
2023-02-16T11:17:49.101Z,21.67
2023-02-16T11:20:29.719Z,21.85
2023-02-16T11:23:22.973Z,21.77
2023-02-16T11:25:58.500Z,22.20
2023-02-16T11:28:34.886Z,21.70
2023-02-16T11:31:40.317Z,22.90
2023-02-16T11:34:35.870Z,25.50
2023-02-16T11:37:05.713Z,22.65
2023-02-16T11:39:37.848Z,21.52
2023-02-16T11:42:23.283Z,22.35
2023-02-16T11:44:56.346Z,25.52
2023-02-16T11:47:29.805Z,22.20
2023-02-16T11:50:28.631Z,24.67
2023-02-16T11:53:22.870Z,21.70
2023-02-16T11:55:51.261Z,21.60
2023-02-16T11:58:18.088Z,22.25
2023-02-16T12:01:16.701Z,26.13
2023-02-16T12:04:22.277Z,20.30
2023-02-16T12:07:20.263Z,20.17
2023-02-16T12:10:13.142Z,22.35
2023-02-16T12:13:08.778Z,19.27
2023-02-16T12:16:02.157Z,21.35
2023-02-16T12:18:48.110Z,21.23
2023-02-16T12:21:33.005Z,22.63
2023-02-16T12:24:47.970Z,22.05
2023-02-16T12:27:37.577Z,19.70
2023-02-16T12:30:29.338Z,20.23
2023-02-16T12:33:13.860Z,18.17
2023-02-16T12:36:06.674Z,18.15
2023-02-16T12:39:02.221Z,21.85
2023-02-16T12:42:01.090Z,20.40
2023-02-16T12:44:37.463Z,21.52
2023-02-16T12:47:16.265Z,21.33
2023-02-16T12:50:03.799Z,21.40
2023-02-16T12:52:49.753Z,21.45
2023-02-16T12:55:26.529Z,19.85
2023-02-16T12:58:10.007Z,23.13
2023-02-16T13:00:52.967Z,21.60
2023-02-16T13:04:10.992Z,19.75
2023-02-16T13:06:57.919Z,20.75
2023-02-16T13:09:36.510Z,24.30
2023-02-16T13:12:26.026Z,20.65
2023-02-16T13:51:44.758Z,26.20
2023-02-16T13:54:30.615Z,30.08
2023-02-16T13:56:57.737Z,20.38
2023-02-16T13:59:24.560Z,20.98
2023-02-16T14:01:54.457Z,22.63
2023-02-16T14:04:24.721Z,22.05
2023-02-16T14:07:03.850Z,23.38
2023-02-16T14:09:45.831Z,22.38
2023-02-16T14:12:20.106Z,21.88
2023-02-16T14:14:57.835Z,23.33
2023-02-16T14:17:28.077Z,21.35
2023-02-16T14:20:09.337Z,22.77
2023-02-16T14:22:54.183Z,26.13
2023-02-16T14:25:23.833Z,24.77
2023-02-16T14:28:02.904Z,23.42
2023-02-16T14:30:38.835Z,25.27
2023-02-16T14:33:17.654Z,23.98
2023-02-16T14:36:00.152Z,28.15
2023-02-16T14:38:47.676Z,22.80
2023-02-16T14:41:24.915Z,23.77
2023-02-16T14:43:56.646Z,28.42
2023-02-16T14:46:38.464Z,24.30
2023-02-16T14:49:14.947Z,27.95
2023-02-16T14:52:09.423Z,27.38
2023-02-16T14:55:01.836Z,25.13
2023-02-16T14:57:34.963Z,25.35
2023-02-16T15:00:19.834Z,28.88
2023-02-16T15:03:21.103Z,25.58
2023-02-16T15:06:02.566Z,29.73
2023-02-16T15:08:35.796Z,28.35
2023-02-16T15:11:34.075Z,27.73
2023-02-16T15:14:08.943Z,28.13
2023-02-16T15:16:40.520Z,26.80
2023-02-16T15:19:22.877Z,28.63
2023-02-16T15:22:27.629Z,29.60
2023-02-16T15:24:58.615Z,31.70
2023-02-16T15:27:26.305Z,34.05
2023-02-16T15:30:06.143Z,30.98
2023-02-16T15:32:33.430Z,28.80
2023-02-16T15:35:13.561Z,28.75
2023-02-16T15:37:41.701Z,30.88
2023-02-16T15:40:26.139Z,29.13
2023-02-16T15:42:54.945Z,29.45
2023-02-16T15:45:37.742Z,31.05
2023-02-16T15:48:36.766Z,29.95
2023-02-16T15:51:09.006Z,32.50
2023-02-16T15:53:57.530Z,32.35
2023-02-16T15:56:38.869Z,30.17
2023-02-16T15:59:36.922Z,31.33
2023-02-16T16:02:07.182Z,33.67
2023-02-16T16:04:38.826Z,31.20
2023-02-16T16:07:08.447Z,32.53
2023-02-16T16:09:36.673Z,34.10
2023-02-16T16:12:06.942Z,33.13
2023-02-16T16:14:38.951Z,29.10
2023-02-16T16:17:09.017Z,30.38
2023-02-16T16:19:38.228Z,30.00
2023-02-16T16:22:29.358Z,35.08
2023-02-16T16:24:56.637Z,31.27
2023-02-16T16:27:36.718Z,32.35
2023-02-16T16:30:20.625Z,31.63
2023-02-16T16:32:47.722Z,32.92
2023-02-16T16:35:44.082Z,31.08
2023-02-16T16:38:28.639Z,37.03
2023-02-16T16:40:58.973Z,34.45
2023-02-16T16:43:30.393Z,35.70
2023-02-16T16:46:23.507Z,35.20
2023-02-16T16:48:55.037Z,32.40
2023-02-16T16:51:40.165Z,37.03
2023-02-16T16:54:31.522Z,34.50
2023-02-16T16:56:58.394Z,34.08
2023-02-16T16:59:25.283Z,33.65
2023-02-16T17:01:52.974Z,32.50
2023-02-16T17:04:22.116Z,34.90
2023-02-16T17:06:49.198Z,32.55
2023-02-16T17:09:16.954Z,32.97
2023-02-16T17:11:43.896Z,32.75
2023-02-16T17:14:14.770Z,30.13
2023-02-16T17:16:45.134Z,36.22
2023-02-16T17:19:16.804Z,32.13
2023-02-16T17:21:44.924Z,46.38
2023-02-16T17:24:11.753Z,39.75
2023-02-16T17:26:38.768Z,43.70
2023-02-16T17:29:06.894Z,35.13
2023-02-16T17:31:34.672Z,36.22
2023-02-16T17:34:02.685Z,37.90
2023-02-16T17:36:29.688Z,34.83
2023-02-16T17:38:56.587Z,40.30
2023-02-16T17:41:28.964Z,37.28
2023-02-16T17:43:56.128Z,39.40
2023-02-16T17:46:23.484Z,40.22
2023-02-16T17:48:53.930Z,38.65
2023-02-16T17:51:24.687Z,38.70
2023-02-16T17:53:51.953Z,39.42
2023-02-16T17:56:21.847Z,41.45
2023-02-16T17:58:51.297Z,40.95
2023-02-16T18:01:19.130Z,43.97
2023-02-16T18:03:46.422Z,40.35
2023-02-16T18:06:15.785Z,42.92
2023-02-16T18:08:43.030Z,48.50
2023-02-16T18:11:10.240Z,39.95
2023-02-16T18:13:37.980Z,38.47
2023-02-16T18:16:07.153Z,42.67
2023-02-16T18:18:36.910Z,42.90
2023-02-16T18:21:04.024Z,39.50
2023-02-16T18:23:31.312Z,41.45
2023-02-16T18:25:58.285Z,39.83
2023-02-16T18:28:31.376Z,41.67
2023-02-16T18:30:58.923Z,39.13
2023-02-16T18:33:26.382Z,36.85
2023-02-16T18:35:55.483Z,35.83
2023-02-16T18:38:23.311Z,38.42
2023-02-16T18:40:51.836Z,35.03
2023-02-16T18:43:18.949Z,38.30
2023-02-16T18:45:45.811Z,39.65
2023-02-16T18:48:13.394Z,38.42
2023-02-16T18:50:40.564Z,40.92
2023-02-16T18:53:07.845Z,40.63
2023-02-16T18:55:35.236Z,40.97
2023-02-16T18:58:08.268Z,42.25
2023-02-16T19:00:36.968Z,36.58
2023-02-16T19:03:04.850Z,36.65
2023-02-16T19:05:32.444Z,38.47
2023-02-16T19:07:59.624Z,38.80
2023-02-16T19:10:26.718Z,40.92
2023-02-16T19:12:53.901Z,39.75
2023-02-16T19:15:20.960Z,38.45
2023-02-16T19:17:48.152Z,37.72
2023-02-16T19:20:18.242Z,40.80
2023-02-16T19:22:48.867Z,36.38
2023-02-16T19:25:16.304Z,40.75
2023-02-16T19:27:43.998Z,40.20
2023-02-16T19:30:12.508Z,41.65
2023-02-16T19:32:41.293Z,40.22
2023-02-16T19:35:12.016Z,41.80
2023-02-16T19:37:39.078Z,43.25
2023-02-16T19:40:08.518Z,41.70
2023-02-16T19:42:35.647Z,41.00
2023-02-16T19:45:02.889Z,39.33
2023-02-16T19:47:31.009Z,42.20
2023-02-16T19:49:58.778Z,42.10
2023-02-16T19:52:25.614Z,39.15
2023-02-16T19:54:52.749Z,35.22
2023-02-16T19:57:20.578Z,39.47
2023-02-16T19:59:47.541Z,41.63
2023-02-16T20:02:15.619Z,40.28
2023-02-16T20:04:44.047Z,45.17
2023-02-16T20:07:11.399Z,45.20
2023-02-16T20:09:38.550Z,43.42
2023-02-16T20:12:06.245Z,41.20
2023-02-16T20:14:33.362Z,41.10
2023-02-16T20:17:00.293Z,41.53
2023-02-16T20:19:27.550Z,42.88
2023-02-16T20:21:54.467Z,43.10
2023-02-16T20:24:21.592Z,40.05
2023-02-16T20:26:50.432Z,37.08
2023-02-16T20:29:17.568Z,39.63
2023-02-16T20:31:48.716Z,41.83
2023-02-16T20:34:16.078Z,42.42
2023-02-16T20:36:43.360Z,42.97
2023-02-16T20:39:10.365Z,42.25
2023-02-16T20:41:37.552Z,43.08
2023-02-16T20:44:05.050Z,41.47
2023-02-16T20:46:32.667Z,41.00
2023-02-16T20:48:59.750Z,42.25
2023-02-16T20:51:26.692Z,44.58
2023-02-16T20:53:53.621Z,45.42
2023-02-16T20:56:25.261Z,45.53
2023-02-16T20:58:55.649Z,47.63
2023-02-16T21:01:43.552Z,43.63
2023-02-16T21:04:11.000Z,39.50
2023-02-16T21:06:38.384Z,38.92
2023-02-16T21:09:08.712Z,42.10
2023-02-16T21:11:37.153Z,43.03
2023-02-16T21:14:05.293Z,42.03
2023-02-16T21:16:32.439Z,43.08
2023-02-16T21:18:59.624Z,46.63
2023-02-16T21:21:26.905Z,47.92
2023-02-16T21:23:55.088Z,45.97
2023-02-16T21:26:24.648Z,57.88
2023-02-16T21:28:51.859Z,51.53
2023-02-16T21:31:24.527Z,47.67
2023-02-16T21:33:51.986Z,46.38
2023-02-16T21:36:24.733Z,43.80
2023-02-16T21:38:51.844Z,45.85
2023-02-16T21:41:25.717Z,42.65
2023-02-16T21:44:07.655Z,39.30
2023-02-16T21:46:37.489Z,38.45
2023-02-16T21:49:05.896Z,39.65
2023-02-16T21:51:38.056Z,38.53
2023-02-16T21:54:07.114Z,39.83
2023-02-16T21:56:52.857Z,39.17
2023-02-16T21:59:21.866Z,37.60
2023-02-16T22:01:51.245Z,37.90
2023-02-16T22:04:21.151Z,40.15
2023-02-16T22:06:50.003Z,33.95
2023-02-16T22:09:20.113Z,36.85
2023-02-16T22:11:47.674Z,34.55
2023-02-16T22:14:15.038Z,36.78
2023-02-16T22:16:44.523Z,38.20
2023-02-16T22:19:14.130Z,36.58
2023-02-16T22:21:42.999Z,35.28
2023-02-16T22:24:13.518Z,36.88
2023-02-16T22:26:40.955Z,38.50
2023-02-16T22:29:08.903Z,35.42
2023-02-16T22:31:36.153Z,39.17
2023-02-16T22:34:05.665Z,40.45
2023-02-16T22:36:33.665Z,38.47
2023-02-16T22:39:00.637Z,36.45
2023-02-16T22:41:27.652Z,35.95
2023-02-16T22:43:55.572Z,35.97
2023-02-16T22:46:23.972Z,39.83
2023-02-16T22:48:51.256Z,35.97
2023-02-16T22:51:19.264Z,37.65
2023-02-16T22:53:47.010Z,38.10
2023-02-16T22:56:16.191Z,37.38
2023-02-16T22:58:43.164Z,37.28
2023-02-16T23:01:18.981Z,36.33
2023-02-16T23:03:48.297Z,38.28
2023-02-16T23:06:21.279Z,41.42
2023-02-16T23:08:57.452Z,39.83
2023-02-16T23:11:25.510Z,41.90
2023-02-16T23:13:52.644Z,38.45
2023-02-16T23:16:22.611Z,34.35
2023-02-16T23:18:50.453Z,37.33
2023-02-16T23:21:21.685Z,36.50
2023-02-16T23:23:51.630Z,36.10
2023-02-16T23:26:20.281Z,38.35
2023-02-16T23:28:51.579Z,34.92
2023-02-16T23:31:19.196Z,35.95
2023-02-16T23:33:46.228Z,35.80
2023-02-16T23:36:13.117Z,35.85
2023-02-16T23:38:40.213Z,35.60
2023-02-16T23:41:11.785Z,36.28
2023-02-16T23:43:39.286Z,33.83
2023-02-16T23:46:07.508Z,37.38
2023-02-16T23:48:35.278Z,36.75
2023-02-16T23:51:02.496Z,35.70
2023-02-16T23:53:29.416Z,35.05
2023-02-16T23:56:05.286Z,34.45
2023-02-16T23:58:41.236Z,33.80
